Kathy C — 2CTI7 — position and weather

sailwx.info

Track history (hours):
 
Tides and Currents Weather Stations Pressure Air Temp Water Temp Dewpoint Dewpoint Depression Visibility Wind Speed Wind Dir Waves Ship Positions

Kathy C

Last reported at 2014-Nov-26 11:24 UTC. Time now 2014-Nov-28 12:13 UTC.
Position N 50°36' E 000°23'.

Length 106 m; draft 6.7 m.

Type: Cargo ship. MMSI: 235075591.

Date/timePositionNaut miles runAvg speedWind from/ knotsBaromVisibWave heightAir tempDewpointWater temp
2014-Nov-26 11:24N 50°36' E 000°23'7 8.4
2014-Nov-26 10:33N 50°38' E 000°33'10 9.6
2014-Nov-26 09:33N 50°44' E 000°46'2911.8
2014-Nov-26 07:06N 51°01' E 001°22'611.5
2014-Nov-26 06:33N 51°06' E 001°30'1010.0
2014-Nov-26 05:33N 51°12' E 001°42'9 9.0
2014-Nov-26 04:34N 51°20' E 001°50'8 8.4
2014-Nov-26 03:34N 51°28' E 001°53'9 8.7
2014-Nov-26 02:33N 51°36' E 001°47'10 9.6
2014-Nov-26 01:33N 51°45' E 001°43'8 8.5
2014-Nov-26 00:34N 51°51' E 001°34'7 6.7
2014-Nov-25 23:34N 51°56' E 001°26'7 6.7
2014-Nov-25 22:33N 51°59' E 001°17'6 5.5
2014-Nov-25 21:33N 52°02' E 001°10'0 0.0
2014-Nov-25 20:33N 52°02' E 001°10'0 0.0
2014-Nov-25 19:30N 52°02' E 001°10'0 0.0
2014-Nov-25 18:30N 52°02' E 001°10'0 0.0
2014-Nov-25 17:21N 52°02' E 001°10'0 0.0
2014-Nov-25 16:33N 52°02' E 001°10'0 0.0
2014-Nov-25 15:34N 52°02' E 001°10'0 0.0
2014-Nov-25 14:31N 52°02' E 001°10'0 0.0
2014-Nov-25 13:34N 52°02' E 001°10'0 0.0
2014-Nov-25 12:29N 52°02' E 001°10'0 0.0
2014-Nov-25 11:33N 52°02' E 001°10'0 0.0
2014-Nov-25 10:33N 52°02' E 001°10'0 0.0
2014-Nov-25 09:33N 52°02' E 001°10'0 0.0
2014-Nov-25 08:18N 52°02' E 001°10'0 0.0
2014-Nov-25 07:33N 52°02' E 001°10'0 0.0
2014-Nov-25 06:30N 52°02' E 001°10'0 0.0
2014-Nov-25 05:30N 52°02' E 001°10'0 0.0
2014-Nov-25 04:33N 52°02' E 001°10'0 0.0
2014-Nov-25 03:33N 52°02' E 001°10'0 0.0
2014-Nov-25 02:33N 52°02' E 001°10'0 0.0
2014-Nov-25 01:33N 52°02' E 001°10'0 0.0
2014-Nov-25 00:30N 52°02' E 001°10'0 0.0
2014-Nov-24 23:33N 52°02' E 001°10'0 0.0
2014-Nov-24 22:33N 52°02' E 001°10'0 0.0
2014-Nov-24 21:33N 52°02' E 001°10'0 0.0
2014-Nov-24 20:30N 52°02' E 001°10'0 0.0
2014-Nov-24 19:33N 52°02' E 001°10'0 0.0
2014-Nov-24 18:33N 52°02' E 001°10'0 0.0
2014-Nov-24 17:33N 52°02' E 001°10'0 0.0
2014-Nov-24 16:33N 52°02' E 001°10'0 0.0
2014-Nov-24 15:33N 52°02' E 001°10'0 0.0
2014-Nov-24 14:32N 52°02' E 001°10'0 0.0
2014-Nov-24 13:32N 52°02' E 001°10'0 0.0
2014-Nov-24 12:32N 52°02' E 001°10'0 0.0
2014-Nov-24 11:32N 52°03' E 001°10'0 0.0
2014-Nov-24 10:32N 52°03' E 001°10'0 0.0
2014-Nov-24 09:32N 52°03' E 001°10'0 0.0
2014-Nov-24 08:32N 52°03' E 001°10'0 0.0
2014-Nov-24 07:29N 52°03' E 001°10'0 0.0
2014-Nov-24 06:32N 52°02' E 001°10'0 0.0
2014-Nov-24 05:28N 52°02' E 001°10'0 0.0
2014-Nov-24 03:28N 52°02' E 001°10'0 0.0
2014-Nov-24 02:33N 52°02' E 001°10'0 0.0
2014-Nov-24 01:33N 52°02' E 001°10'3 2.9
2014-Nov-24 00:33N 52°00' E 001°13'8 7.6
2014-Nov-23 23:33N 51°56' E 001°23'5 4.7
2014-Nov-23 22:34N 51°57' E 001°30'7 7.0
2014-Nov-23 21:33N 51°52' E 001°38'10 9.8
2014-Nov-23 20:33N 51°50' E 001°54'5410.1
2014-Nov-23 15:11N 51°39' E 003°20'812.6
2014-Nov-23 14:33N 51°32' E 003°25'1010.2
2014-Nov-23 13:34N 51°26' E 003°39'8 8.4
2014-Nov-23 12:33N 51°22' E 003°50'8 7.5
2014-Nov-23 11:33N 51°26' E 004°01'7 6.9
2014-Nov-23 10:34N 51°24' E 004°11'5 4.8
2014-Nov-23 09:34N 51°21' E 004°17'0 0.4
2014-Nov-23 08:33N 51°21' E 004°18'2 1.6
2014-Nov-23 07:33N 51°19' E 004°19'2 2.3
2014-Nov-23 06:33N 51°17' E 004°21'0 0.0
2014-Nov-23 05:31N 51°17' E 004°21'0 0.0
2014-Nov-23 04:31N 51°17' E 004°21'0 0.0
2014-Nov-23 03:28N 51°17' E 004°21'0 0.0
2014-Nov-23 02:31N 51°17' E 004°21'0 0.0
2014-Nov-23 01:31N 51°17' E 004°21'0 0.0
2014-Nov-23 00:31N 51°17' E 004°21'0 0.0
2014-Nov-22 23:28N 51°17' E 004°21'0 0.0
2014-Nov-22 22:31N 51°17' E 004°21'0 0.0
2014-Nov-22 21:28N 51°17' E 004°21'0 0.0
2014-Nov-22 20:28N 51°17' E 004°21'0 0.0
2014-Nov-22 19:28N 51°17' E 004°21'0 0.0
2014-Nov-22 18:31N 51°17' E 004°21'0 0.0
2014-Nov-22 17:31N 51°17' E 004°21'0 0.0
2014-Nov-22 16:31N 51°17' E 004°21'0 0.0
2014-Nov-22 15:31N 51°17' E 004°21'0 0.0
2014-Nov-22 14:31N 51°17' E 004°21'0 0.0
2014-Nov-22 13:28N 51°17' E 004°21'0 0.0
2014-Nov-22 12:28N 51°17' E 004°21'0 0.0
2014-Nov-22 11:31N 51°17' E 004°21'0 0.0
2014-Nov-22 10:31N 51°17' E 004°21'0 0.0
2014-Nov-22 09:31N 51°17' E 004°21'0 0.0
2014-Nov-22 08:31N 51°17' E 004°21'0 0.0
2014-Nov-22 07:31N 51°17' E 004°21'0 0.0
2014-Nov-22 06:25N 51°17' E 004°21'0 0.0
2014-Nov-22 05:31N 51°17' E 004°21'0 0.0
2014-Nov-22 04:31N 51°17' E 004°21'0 0.0
2014-Nov-22 03:31N 51°17' E 004°21'0 0.0
2014-Nov-22 02:31N 51°17' E 004°21'0 0.0
2014-Nov-22 01:31N 51°17' E 004°21'0 0.0
2014-Nov-22 00:31N 51°17' E 004°21'0 0.0
2014-Nov-21 23:28N 51°17' E 004°21'0 0.0
2014-Nov-21 22:31N 51°17' E 004°21'0 0.0
2014-Nov-21 21:31N 51°17' E 004°21'0 0.0
2014-Nov-21 20:31N 51°17' E 004°21'1 0.8
2014-Nov-21 19:34N 51°17' E 004°20'1 1.3
2014-Nov-21 18:34N 51°18' E 004°18'2 2.2
2014-Nov-21 17:34N 51°19' E 004°16'6 5.7
2014-Nov-21 16:33N 51°22' E 004°09'6 6.4
2014-Nov-21 15:33N 51°26' E 004°00'8 8.1
2014-Nov-21 14:33N 51°21' E 003°51'9 9.2
2014-Nov-21 13:33N 51°25' E 003°38'9 9.1
2014-Nov-21 12:33N 51°31' E 003°26'10 9.7
2014-Nov-21 11:31N 51°40' E 003°19'379 9.7
2014-Nov-19 20:32N 57°09' W 002°03'1 1.2
2014-Nov-19 19:33N 57°09' W 002°05'0 0.0
2014-Nov-19 18:12N 57°09' W 002°05'0 0.0
2014-Nov-19 17:33N 57°09' W 002°05'0 0.0
2014-Nov-19 16:33N 57°09' W 002°05'0 0.0
2014-Nov-19 15:30N 57°09' W 002°05'0 0.0
2014-Nov-19 14:33N 57°09' W 002°05'0 0.0
2014-Nov-19 13:30N 57°09' W 002°05'0 0.0
2014-Nov-19 12:32N 57°09' W 002°05'0 0.0
2014-Nov-19 11:24N 57°09' W 002°05'0 0.0
2014-Nov-19 10:33N 57°09' W 002°05'0 0.0
2014-Nov-19 09:30N 57°09' W 002°05'0 0.0
2014-Nov-19 08:33N 57°09' W 002°05'0 0.0
2014-Nov-19 04:30N 57°09' W 002°05'0 0.0
2014-Nov-19 03:32N 57°09' W 002°05'0 0.0
2014-Nov-19 01:26N 57°09' W 002°05'0 0.0
2014-Nov-18 23:06N 57°09' W 002°05'0 0.0
2014-Nov-18 22:33N 57°09' W 002°05'0 0.0
2014-Nov-18 21:17N 57°09' W 002°05'0 0.0
2014-Nov-18 19:24N 57°09' W 002°05'0 0.0
2014-Nov-18 18:12N 57°09' W 002°05'0 0.0
2014-Nov-18 17:33N 57°09' W 002°05'0 0.0
2014-Nov-18 16:14N 57°09' W 002°05'0 0.0
2014-Nov-18 11:18N 57°09' W 002°05'0 0.0
2014-Nov-18 10:33N 57°09' W 002°05'0 0.0
2014-Nov-18 09:27N 57°09' W 002°05'0 0.0
2014-Nov-18 08:27N 57°09' W 002°05'0 0.0
2014-Nov-18 07:30N 57°09' W 002°05'0 0.0
2014-Nov-18 06:33N 57°09' W 002°05'0 0.0
2014-Nov-18 05:33N 57°09' W 002°05'0 0.0
2014-Nov-18 04:33N 57°09' W 002°05'0 0.0
2014-Nov-18 03:29N 57°09' W 002°05'0 0.0
2014-Nov-18 02:30N 57°09' W 002°05'0 0.0
2014-Nov-18 01:33N 57°09' W 002°05'0 0.0
2014-Nov-18 00:33N 57°09' W 002°05'0 0.0
2014-Nov-17 23:32N 57°09' W 002°05'0 0.0
2014-Nov-17 22:21N 57°09' W 002°05'0 0.0
2014-Nov-17 21:33N 57°09' W 002°05'0 0.0
2014-Nov-17 20:33N 57°09' W 002°05'0 0.0
2014-Nov-17 19:30N 57°09' W 002°05'0 0.0
2014-Nov-17 18:33N 57°09' W 002°05'0 0.0
2014-Nov-17 16:09N 57°09' W 002°05'0 0.0
2014-Nov-17 15:33N 57°09' W 002°05'0 0.0
2014-Nov-17 14:30N 57°09' W 002°05'0 0.0
2014-Nov-17 13:33N 57°09' W 002°05'0 0.0
2014-Nov-17 12:30N 57°09' W 002°05'0 0.0
2014-Nov-17 11:30N 57°09' W 002°05'0 0.0
2014-Nov-17 10:23N 57°09' W 002°05'0 0.0
2014-Nov-17 09:24N 57°09' W 002°05'0 0.0
2014-Nov-17 08:30N 57°09' W 002°05'0 0.0
2014-Nov-17 07:33N 57°09' W 002°05'0 0.0
2014-Nov-17 06:33N 57°09' W 002°05'0 0.0
2014-Nov-17 05:33N 57°09' W 002°05'0 0.0
2014-Nov-17 04:33N 57°09' W 002°05'0 0.0
2014-Nov-17 03:33N 57°09' W 002°05'0 0.0
2014-Nov-17 02:30N 57°09' W 002°05'0 0.0
2014-Nov-17 01:33N 57°09' W 002°05'0 0.0
2014-Nov-17 00:33N 57°09' W 002°05'0 0.0
2014-Nov-16 23:33N 57°09' W 002°05'0 0.0
2014-Nov-16 22:33N 57°09' W 002°05'0 0.0
2014-Nov-16 21:29N 57°09' W 002°05'0 0.0
2014-Nov-16 20:33N 57°09' W 002°05'0 0.0
2014-Nov-16 19:33N 57°09' W 002°05'0 0.0
2014-Nov-16 18:33N 57°09' W 002°05'0 0.0
2014-Nov-16 17:33N 57°09' W 002°05'0 0.0
2014-Nov-16 16:33N 57°09' W 002°05'0 0.0
2014-Nov-16 15:32N 57°09' W 002°05'0 0.0
2014-Nov-16 14:33N 57°09' W 002°05'0 0.0
2014-Nov-16 13:33N 57°09' W 002°05'0 0.0
2014-Nov-16 12:33N 57°09' W 002°05'0 0.0
2014-Nov-16 11:33N 57°09' W 002°05'  
Track history (hours):
 
Tides and Currents Weather Stations Pressure Air Temp Water Temp Dewpoint Dewpoint Depression Visibility Wind Speed Wind Dir Waves Ship Positions

Kathy C

Last reported at 2014-Nov-26 11:24 UTC. Time now 2014-Nov-28 12:13 UTC.
Position N 50°36' E 000°23'.

Length 106 m; draft 6.7 m.

Type: Cargo ship. MMSI: 235075591.

Date/timePositionNaut miles runAvg speedWind from/ knotsBaromVisibWave heightAir tempDewpointWater temp
2014-Nov-26 11:24N 50°36' E 000°23'7 8.4
2014-Nov-26 10:33N 50°38' E 000°33'10 9.6
2014-Nov-26 09:33N 50°44' E 000°46'2911.8
2014-Nov-26 07:06N 51°01' E 001°22'611.5
2014-Nov-26 06:33N 51°06' E 001°30'1010.0
2014-Nov-26 05:33N 51°12' E 001°42'9 9.0
2014-Nov-26 04:34N 51°20' E 001°50'8 8.4
2014-Nov-26 03:34N 51°28' E 001°53'9 8.7
2014-Nov-26 02:33N 51°36' E 001°47'10 9.6
2014-Nov-26 01:33N 51°45' E 001°43'8 8.5
2014-Nov-26 00:34N 51°51' E 001°34'7 6.7
2014-Nov-25 23:34N 51°56' E 001°26'7 6.7
2014-Nov-25 22:33N 51°59' E 001°17'6 5.5
2014-Nov-25 21:33N 52°02' E 001°10'0 0.0
2014-Nov-25 20:33N 52°02' E 001°10'0 0.0
2014-Nov-25 19:30N 52°02' E 001°10'0 0.0
2014-Nov-25 18:30N 52°02' E 001°10'0 0.0
2014-Nov-25 17:21N 52°02' E 001°10'0 0.0
2014-Nov-25 16:33N 52°02' E 001°10'0 0.0
2014-Nov-25 15:34N 52°02' E 001°10'0 0.0
2014-Nov-25 14:31N 52°02' E 001°10'0 0.0
2014-Nov-25 13:34N 52°02' E 001°10'0 0.0
2014-Nov-25 12:29N 52°02' E 001°10'0 0.0
2014-Nov-25 11:33N 52°02' E 001°10'0 0.0
2014-Nov-25 10:33N 52°02' E 001°10'0 0.0
2014-Nov-25 09:33N 52°02' E 001°10'0 0.0
2014-Nov-25 08:18N 52°02' E 001°10'0 0.0
2014-Nov-25 07:33N 52°02' E 001°10'0 0.0
2014-Nov-25 06:30N 52°02' E 001°10'0 0.0
2014-Nov-25 05:30N 52°02' E 001°10'0 0.0
2014-Nov-25 04:33N 52°02' E 001°10'0 0.0
2014-Nov-25 03:33N 52°02' E 001°10'0 0.0
2014-Nov-25 02:33N 52°02' E 001°10'0 0.0
2014-Nov-25 01:33N 52°02' E 001°10'0 0.0
2014-Nov-25 00:30N 52°02' E 001°10'0 0.0
2014-Nov-24 23:33N 52°02' E 001°10'0 0.0
2014-Nov-24 22:33N 52°02' E 001°10'0 0.0
2014-Nov-24 21:33N 52°02' E 001°10'0 0.0
2014-Nov-24 20:30N 52°02' E 001°10'0 0.0
2014-Nov-24 19:33N 52°02' E 001°10'0 0.0
2014-Nov-24 18:33N 52°02' E 001°10'0 0.0
2014-Nov-24 17:33N 52°02' E 001°10'0 0.0
2014-Nov-24 16:33N 52°02' E 001°10'0 0.0
2014-Nov-24 15:33N 52°02' E 001°10'0 0.0
2014-Nov-24 14:32N 52°02' E 001°10'0 0.0
2014-Nov-24 13:32N 52°02' E 001°10'0 0.0
2014-Nov-24 12:32N 52°02' E 001°10'0 0.0
2014-Nov-24 11:32N 52°03' E 001°10'0 0.0
2014-Nov-24 10:32N 52°03' E 001°10'0 0.0
2014-Nov-24 09:32N 52°03' E 001°10'0 0.0
2014-Nov-24 08:32N 52°03' E 001°10'0 0.0
2014-Nov-24 07:29N 52°03' E 001°10'0 0.0
2014-Nov-24 06:32N 52°02' E 001°10'0 0.0
2014-Nov-24 05:28N 52°02' E 001°10'0 0.0
2014-Nov-24 03:28N 52°02' E 001°10'0 0.0
2014-Nov-24 02:33N 52°02' E 001°10'0 0.0
2014-Nov-24 01:33N 52°02' E 001°10'3 2.9
2014-Nov-24 00:33N 52°00' E 001°13'8 7.6
2014-Nov-23 23:33N 51°56' E 001°23'5 4.7
2014-Nov-23 22:34N 51°57' E 001°30'7 7.0
2014-Nov-23 21:33N 51°52' E 001°38'10 9.8
2014-Nov-23 20:33N 51°50' E 001°54'5410.1
2014-Nov-23 15:11N 51°39' E 003°20'812.6
2014-Nov-23 14:33N 51°32' E 003°25'1010.2
2014-Nov-23 13:34N 51°26' E 003°39'8 8.4
2014-Nov-23 12:33N 51°22' E 003°50'8 7.5
2014-Nov-23 11:33N 51°26' E 004°01'7 6.9
2014-Nov-23 10:34N 51°24' E 004°11'5 4.8
2014-Nov-23 09:34N 51°21' E 004°17'0 0.4
2014-Nov-23 08:33N 51°21' E 004°18'2 1.6
2014-Nov-23 07:33N 51°19' E 004°19'2 2.3
2014-Nov-23 06:33N 51°17' E 004°21'0 0.0
2014-Nov-23 05:31N 51°17' E 004°21'0 0.0
2014-Nov-23 04:31N 51°17' E 004°21'0 0.0
2014-Nov-23 03:28N 51°17' E 004°21'0 0.0
2014-Nov-23 02:31N 51°17' E 004°21'0 0.0
2014-Nov-23 01:31N 51°17' E 004°21'0 0.0
2014-Nov-23 00:31N 51°17' E 004°21'0 0.0
2014-Nov-22 23:28N 51°17' E 004°21'0 0.0
2014-Nov-22 22:31N 51°17' E 004°21'0 0.0
2014-Nov-22 21:28N 51°17' E 004°21'0 0.0
2014-Nov-22 20:28N 51°17' E 004°21'0 0.0
2014-Nov-22 19:28N 51°17' E 004°21'0 0.0
2014-Nov-22 18:31N 51°17' E 004°21'0 0.0
2014-Nov-22 17:31N 51°17' E 004°21'0 0.0
2014-Nov-22 16:31N 51°17' E 004°21'0 0.0
2014-Nov-22 15:31N 51°17' E 004°21'0 0.0
2014-Nov-22 14:31N 51°17' E 004°21'0 0.0
2014-Nov-22 13:28N 51°17' E 004°21'0 0.0
2014-Nov-22 12:28N 51°17' E 004°21'0 0.0
2014-Nov-22 11:31N 51°17' E 004°21'0 0.0
2014-Nov-22 10:31N 51°17' E 004°21'0 0.0
2014-Nov-22 09:31N 51°17' E 004°21'0 0.0
2014-Nov-22 08:31N 51°17' E 004°21'0 0.0
2014-Nov-22 07:31N 51°17' E 004°21'0 0.0
2014-Nov-22 06:25N 51°17' E 004°21'0 0.0
2014-Nov-22 05:31N 51°17' E 004°21'0 0.0
2014-Nov-22 04:31N 51°17' E 004°21'0 0.0
2014-Nov-22 03:31N 51°17' E 004°21'0 0.0
2014-Nov-22 02:31N 51°17' E 004°21'0 0.0
2014-Nov-22 01:31N 51°17' E 004°21'0 0.0
2014-Nov-22 00:31N 51°17' E 004°21'0 0.0
2014-Nov-21 23:28N 51°17' E 004°21'0 0.0
2014-Nov-21 22:31N 51°17' E 004°21'0 0.0
2014-Nov-21 21:31N 51°17' E 004°21'0 0.0
2014-Nov-21 20:31N 51°17' E 004°21'1 0.8
2014-Nov-21 19:34N 51°17' E 004°20'1 1.3
2014-Nov-21 18:34N 51°18' E 004°18'2 2.2
2014-Nov-21 17:34N 51°19' E 004°16'6 5.7
2014-Nov-21 16:33N 51°22' E 004°09'6 6.4
2014-Nov-21 15:33N 51°26' E 004°00'8 8.1
2014-Nov-21 14:33N 51°21' E 003°51'9 9.2
2014-Nov-21 13:33N 51°25' E 003°38'9 9.1
2014-Nov-21 12:33N 51°31' E 003°26'10 9.7
2014-Nov-21 11:31N 51°40' E 003°19'379 9.7
2014-Nov-19 20:32N 57°09' W 002°03'1 1.2
2014-Nov-19 19:33N 57°09' W 002°05'0 0.0
2014-Nov-19 18:12N 57°09' W 002°05'0 0.0
2014-Nov-19 17:33N 57°09' W 002°05'0 0.0
2014-Nov-19 16:33N 57°09' W 002°05'0 0.0
2014-Nov-19 15:30N 57°09' W 002°05'0 0.0
2014-Nov-19 14:33N 57°09' W 002°05'0 0.0
2014-Nov-19 13:30N 57°09' W 002°05'0 0.0
2014-Nov-19 12:32N 57°09' W 002°05'0 0.0
2014-Nov-19 11:24N 57°09' W 002°05'0 0.0
2014-Nov-19 10:33N 57°09' W 002°05'0 0.0
2014-Nov-19 09:30N 57°09' W 002°05'0 0.0
2014-Nov-19 08:33N 57°09' W 002°05'0 0.0
2014-Nov-19 04:30N 57°09' W 002°05'0 0.0
2014-Nov-19 03:32N 57°09' W 002°05'0 0.0
2014-Nov-19 01:26N 57°09' W 002°05'0 0.0
2014-Nov-18 23:06N 57°09' W 002°05'0 0.0
2014-Nov-18 22:33N 57°09' W 002°05'0 0.0
2014-Nov-18 21:17N 57°09' W 002°05'0 0.0
2014-Nov-18 19:24N 57°09' W 002°05'0 0.0
2014-Nov-18 18:12N 57°09' W 002°05'0 0.0
2014-Nov-18 17:33N 57°09' W 002°05'0 0.0
2014-Nov-18 16:14N 57°09' W 002°05'0 0.0
2014-Nov-18 11:18N 57°09' W 002°05'0 0.0
2014-Nov-18 10:33N 57°09' W 002°05'0 0.0
2014-Nov-18 09:27N 57°09' W 002°05'0 0.0
2014-Nov-18 08:27N 57°09' W 002°05'0 0.0
2014-Nov-18 07:30N 57°09' W 002°05'0 0.0
2014-Nov-18 06:33N 57°09' W 002°05'0 0.0
2014-Nov-18 05:33N 57°09' W 002°05'0 0.0
2014-Nov-18 04:33N 57°09' W 002°05'0 0.0
2014-Nov-18 03:29N 57°09' W 002°05'0 0.0
2014-Nov-18 02:30N 57°09' W 002°05'0 0.0
2014-Nov-18 01:33N 57°09' W 002°05'0 0.0
2014-Nov-18 00:33N 57°09' W 002°05'0 0.0
2014-Nov-17 23:32N 57°09' W 002°05'0 0.0
2014-Nov-17 22:21N 57°09' W 002°05'0 0.0
2014-Nov-17 21:33N 57°09' W 002°05'0 0.0
2014-Nov-17 20:33N 57°09' W 002°05'0 0.0
2014-Nov-17 19:30N 57°09' W 002°05'0 0.0
2014-Nov-17 18:33N 57°09' W 002°05'0 0.0
2014-Nov-17 16:09N 57°09' W 002°05'0 0.0
2014-Nov-17 15:33N 57°09' W 002°05'0 0.0
2014-Nov-17 14:30N 57°09' W 002°05'0 0.0
2014-Nov-17 13:33N 57°09' W 002°05'0 0.0
2014-Nov-17 12:30N 57°09' W 002°05'0 0.0
2014-Nov-17 11:30N 57°09' W 002°05'0 0.0
2014-Nov-17 10:23N 57°09' W 002°05'0 0.0
2014-Nov-17 09:24N 57°09' W 002°05'0 0.0
2014-Nov-17 08:30N 57°09' W 002°05'0 0.0
2014-Nov-17 07:33N 57°09' W 002°05'0 0.0
2014-Nov-17 06:33N 57°09' W 002°05'0 0.0
2014-Nov-17 05:33N 57°09' W 002°05'0 0.0
2014-Nov-17 04:33N 57°09' W 002°05'0 0.0
2014-Nov-17 03:33N 57°09' W 002°05'0 0.0
2014-Nov-17 02:30N 57°09' W 002°05'0 0.0
2014-Nov-17 01:33N 57°09' W 002°05'0 0.0
2014-Nov-17 00:33N 57°09' W 002°05'0 0.0
2014-Nov-16 23:33N 57°09' W 002°05'0 0.0
2014-Nov-16 22:33N 57°09' W 002°05'0 0.0
2014-Nov-16 21:29N 57°09' W 002°05'0 0.0
2014-Nov-16 20:33N 57°09' W 002°05'0 0.0
2014-Nov-16 19:33N 57°09' W 002°05'0 0.0
2014-Nov-16 18:33N 57°09' W 002°05'0 0.0
2014-Nov-16 17:33N 57°09' W 002°05'0 0.0
2014-Nov-16 16:33N 57°09' W 002°05'0 0.0
2014-Nov-16 15:32N 57°09' W 002°05'0 0.0
2014-Nov-16 14:33N 57°09' W 002°05'0 0.0
2014-Nov-16 13:33N 57°09' W 002°05'0 0.0
2014-Nov-16 12:33N 57°09' W 002°05'0 0.0
2014-Nov-16 11:33N 57°09' W 002°05'  

Dump ship's entire track history